Time;durP1;ratioP1;P1;durP2;ratioP2;P2;SDS_P1;SDS_P2;PMS_P1;PMS_P2;Temp;Humidity;BMP_temperature;BMP_pressure;BME280_temperature;BME280_humidity;BME280_pressure;Samples;Min_cycle;Max_cycle;Signal;HPM_P1;HPM_P2
2022/08/17 00:00:42;;;;;;;;;;;;;;;25.34;64.65;100618.41;4997813;28;4197;-72
2022/08/17 00:03:25;;;;;;;;;;;;;;;25.33;64.55;100614.03;4999904;28;4705;-72
2022/08/17 00:05:55;;;;;;;;;;;;;;;25.34;64.77;100618.41;4998676;28;4254;-72
2022/08/17 00:08:23;;;;;;;;;;;;;;;25.35;64.81;100613.34;5000073;28;4083;-71
2022/08/17 00:10:49;;;;;;;;;;;;;;;25.34;64.66;100611.88;4997517;28;5461;-72
2022/08/17 00:13:17;;;;;;;;;;;;;;;25.33;64.57;100613.28;4999334;28;3945;-73
2022/08/17 00:15:44;;;;;;;;;;;;;;;25.31;64.79;100616.88;4998524;28;4131;-72
2022/08/17 00:18:10;;;;;;;;;;;;;;;25.33;64.74;100616.19;4999875;28;4137;-72
2022/08/17 00:20:56;;;;;;;;;;;;;;;25.31;64.83;100619.78;4999506;28;5246;-71
2022/08/17 00:23:23;;;;;;;;;;;;;;;25.32;64.53;100627.06;4997225;28;3988;-72
2022/08/17 00:25:49;;;;;;;;;;;;;;;25.31;64.59;100621.94;4996113;28;5640;-72
2022/08/17 00:28:16;;;;;;;;;;;;;;;25.30;64.58;100629.91;4996355;28;4344;-72
2022/08/17 00:30:43;;;;;;;;;;;;;;;25.32;64.47;100629.22;5001266;28;4164;-72
2022/08/17 00:33:17;;;;;;;;;;;;;;;25.31;64.36;100630.63;5000665;28;4170;-72
2022/08/17 00:35:44;;;;;;;;;;;;;;;25.31;64.32;100642.97;4993909;28;4196;-71
2022/08/17 00:38:11;;;;;;;;;;;;;;;25.32;64.42;100638.66;5000066;28;4210;-71
2022/08/17 00:40:44;;;;;;;;;;;;;;;25.32;64.32;100627.06;4998308;28;4200;-71
2022/08/17 00:43:21;;;;;;;;;;;;;;;25.32;64.48;100632.13;4993378;28;4235;-72
2022/08/17 00:45:48;;;;;;;;;;;;;;;25.31;64.35;100624.84;4999186;28;4284;-72
2022/08/17 00:48:14;;;;;;;;;;;;;;;25.31;64.53;100631.38;5000913;28;5348;-72
2022/08/17 00:50:57;;;;;;;;;;;;;;;25.32;64.55;100632.13;5000278;28;4312;-71
2022/08/17 00:53:24;;;;;;;;;;;;;;;25.31;64.42;100631.38;4996932;28;4239;-71
2022/08/17 00:55:50;;;;;;;;;;;;;;;25.31;64.40;100624.84;4997470;28;4971;-71
2022/08/17 00:58:18;;;;;;;;;;;;;;;25.31;64.43;100621.94;4994131;28;4072;-72
2022/08/17 01:01:01;;;;;;;;;;;;;;;25.31;64.54;100630.63;4996841;28;5136;-72
2022/08/17 01:03:27;;;;;;;;;;;;;;;25.31;64.58;100619.03;4998757;28;4213;-71
2022/08/17 01:05:55;;;;;;;;;;;;;;;25.28;64.43;100627.69;4996110;28;4768;-72
2022/08/17 01:08:23;;;;;;;;;;;;;;;25.30;64.46;100629.91;4998584;28;5434;-73
2022/08/17 01:10:52;;;;;;;;;;;;;;;25.29;64.26;100628.44;4994045;28;4153;-71
2022/08/17 01:13:29;;;;;;;;;;;;;;;25.30;64.48;100629.91;4996897;28;5606;-72
2022/08/17 01:16:06;;;;;;;;;;;;;;;25.30;64.41;100629.91;5001249;28;4216;-71
2022/08/17 01:18:33;;;;;;;;;;;;;;;25.29;64.20;100625.53;4993360;28;4161;-72
2022/08/17 01:21:02;;;;;;;;;;;;;;;25.28;64.31;100626.97;4994261;28;5326;-72
2022/08/17 01:23:28;;;;;;;;;;;;;;;25.28;64.37;100627.69;4997693;28;4372;-72
2022/08/17 01:25:56;;;;;;;;;;;;;;;25.28;64.07;100619.00;4998862;28;5432;-71
2022/08/17 01:28:22;;;;;;;;;;;;;;;25.30;64.31;100629.91;4994289;28;4226;-72
2022/08/17 01:31:08;;;;;;;;;;;;;;;25.29;64.05;100632.06;4997958;28;4205;-71
2022/08/17 01:33:35;;;;;;;;;;;;;;;25.30;64.33;100629.91;4994318;28;4237;-72
2022/08/17 01:36:02;;;;;;;;;;;;;;;25.28;64.38;100627.69;4998387;28;4199;-71
2022/08/17 01:38:30;;;;;;;;;;;;;;;25.28;64.30;100630.59;4994609;28;4213;-72
2022/08/17 01:41:00;;;;;;;;;;;;;;;25.28;64.23;100638.56;4997309;28;4240;-72
2022/08/17 01:43:28;;;;;;;;;;;;;;;25.27;64.22;100637.81;4995922;28;4239;-69
2022/08/17 01:45:55;;;;;;;;;;;;;;;25.27;64.26;100637.09;4998201;28;4239;-71
2022/08/17 01:48:32;;;;;;;;;;;;;;;25.28;64.28;100641.44;4995574;28;4488;-70
2022/08/17 01:50:58;;;;;;;;;;;;;;;25.27;64.08;100643.63;4999665;28;5199;-71
2022/08/17 01:53:25;;;;;;;;;;;;;;;25.28;64.30;100639.28;4999134;28;5360;-71
2022/08/17 01:55:56;;;;;;;;;;;;;;;25.27;64.32;100637.09;4997638;28;5111;-71
2022/08/17 01:58:22;;;;;;;;;;;;;;;25.27;64.41;100642.88;4998295;28;4521;-72
2022/08/17 02:00:50;;;;;;;;;;;;;;;25.27;64.72;100640.00;4994864;28;4399;-68
2022/08/17 02:03:26;;;;;;;;;;;;;;;25.27;64.48;100642.88;4998915;28;4169;-67
2022/08/17 02:05:53;;;;;;;;;;;;;;;25.28;64.52;100638.56;4998315;28;5101;-68
2022/08/17 02:08:19;;;;;;;;;;;;;;;25.07;64.63;100640.22;4997148;28;5432;-69
2022/08/17 02:11:05;;;;;;;;;;;;;;;25.17;64.38;100639.72;4996709;28;4567;-71
2022/08/17 02:13:36;;;;;;;;;;;;;;;25.20;64.25;100638.38;4998156;28;4200;-71
2022/08/17 02:16:03;;;;;;;;;;;;;;;25.20;64.12;100644.19;4998444;28;5328;-70
2022/08/17 02:18:29;;;;;;;;;;;;;;;25.20;64.05;100644.91;4998038;28;4310;-72
2022/08/17 02:20:56;;;;;;;;;;;;;;;25.19;64.02;100642.69;4997381;28;4144;-71
2022/08/17 02:23:22;;;;;;;;;;;;;;;25.19;63.86;100640.53;4998778;28;4818;-70
2022/08/17 02:25:49;;;;;;;;;;;;;;;25.18;63.66;100638.31;4999533;28;4164;-70
2022/08/17 02:28:15;;;;;;;;;;;;;;;25.19;63.62;100634.00;4997875;28;4356;-70
2022/08/17 02:30:42;;;;;;;;;;;;;;;25.19;63.60;100636.91;4998708;28;4317;-70
2022/08/17 02:33:28;;;;;;;;;;;;;;;25.19;63.72;100634.00;4997314;28;4154;-71
2022/08/17 02:36:08;;;;;;;;;;;;;;;25.18;63.54;100629.63;4997967;28;4290;-72
2022/08/17 02:38:35;;;;;;;;;;;;;;;25.18;63.48;100626.72;4996894;28;4238;-70
2022/08/17 02:41:01;;;;;;;;;;;;;;;25.18;63.40;100630.38;4998590;28;4272;-70
2022/08/17 02:43:28;;;;;;;;;;;;;;;25.18;63.34;100627.47;4997210;28;5132;-70
2022/08/17 02:45:54;;;;;;;;;;;;;;;25.17;63.26;100633.91;4998134;28;4357;-68
2022/08/17 02:48:21;;;;;;;;;;;;;;;25.17;63.29;100628.13;4998432;28;4125;-69
2022/08/17 02:50:56;;;;;;;;;;;;;;;25.17;63.12;100628.13;5000732;28;4213;-69
2022/08/17 02:53:22;;;;;;;;;;;;;;;25.17;63.15;100628.13;5002436;28;4351;-69
2022/08/17 02:55:51;;;;;;;;;;;;;;;25.15;62.97;100622.28;5002139;28;4331;-69
2022/08/17 02:58:17;;;;;;;;;;;;;;;25.15;62.90;100625.19;5002518;28;4155;-69
2022/08/17 03:01:02;;;;;;;;;;;;;;;25.14;62.85;100612.84;5002692;28;7047;-70
2022/08/17 03:03:28;;;;;;;;;;;;;;;25.14;62.88;100612.84;5001892;28;5443;-68
2022/08/17 03:05:54;;;;;;;;;;;;;;;25.14;62.78;100615.03;5002187;28;4157;-68
2022/08/17 03:08:22;;;;;;;;;;;;;;;25.13;62.62;100622.22;5001592;28;4213;-69
2022/08/17 03:10:49;;;;;;;;;;;;;;;25.14;62.53;100620.81;5002535;28;4241;-69
2022/08/17 03:13:15;;;;;;;;;;;;;;;25.13;62.58;100623.00;5001726;28;4317;-69
2022/08/17 03:15:43;;;;;;;;;;;;;;;25.12;62.40;100623.66;5001908;28;4493;-69
2022/08/17 03:18:11;;;;;;;;;;;;;;;25.12;62.37;100626.56;5002278;28;4624;-70
2022/08/17 03:20:49;;;;;;;;;;;;;;;25.11;62.32;100625.84;5001500;28;5205;-69
2022/08/17 03:23:15;;;;;;;;;;;;;;;25.11;62.26;100619.31;5000094;28;4155;-69
2022/08/17 03:25:44;;;;;;;;;;;;;;;25.11;62.06;100625.09;5001291;28;4499;-69
2022/08/17 03:28:11;;;;;;;;;;;;;;;25.09;62.29;100617.81;5002641;28;4000;-69
2022/08/17 03:30:37;;;;;;;;;;;;;;;25.10;62.02;100615.66;5000892;28;4139;-69
2022/08/17 03:33:04;;;;;;;;;;;;;;;25.09;62.00;100617.09;5000353;28;4213;-69
2022/08/17 03:35:31;;;;;;;;;;;;;;;25.09;61.95;100623.63;5002122;28;4227;-68
2022/08/17 03:37:58;;;;;;;;;;;;;;;25.09;61.70;100623.63;5001626;28;5547;-69
2022/08/17 03:40:26;;;;;;;;;;;;;;;25.09;61.69;100625.78;5001050;28;4141;-68
2022/08/17 03:43:12;;;;;;;;;;;;;;;25.07;61.73;100629.38;5000658;28;4257;-68
2022/08/17 03:56:58;;;;;;;;;;;;;;;25.05;61.62;100629.31;4999823;28;4244;-69
2022/08/17 03:59:24;;;;;;;;;;;;;;;25.05;61.66;100632.22;5001018;28;5397;-69
2022/08/17 04:01:51;;;;;;;;;;;;;;;25.05;61.63;100626.41;4999642;28;4492;-69
2022/08/17 04:04:19;;;;;;;;;;;;;;;25.05;61.63;100629.31;5002027;28;4087;-70
2022/08/17 04:06:53;;;;;;;;;;;;;;;25.04;61.75;100627.84;5001105;28;5522;-68
2022/08/17 04:09:19;;;;;;;;;;;;;;;25.05;61.82;100628.59;5001644;28;4441;-69
2022/08/17 04:11:45;;;;;;;;;;;;;;;25.03;61.65;100632.16;5000453;28;4226;-68
2022/08/17 04:14:12;;;;;;;;;;;;;;;25.03;61.52;100626.38;5000696;28;4202;-70
2022/08/17 04:16:39;;;;;;;;;;;;;;;25.03;61.62;100632.16;4999885;28;4519;-70
2022/08/17 04:19:05;;;;;;;;;;;;;;;25.03;61.64;100626.38;4999803;28;4246;-69
2022/08/17 04:21:32;;;;;;;;;;;;;;;25.02;61.59;100630.69;4998385;28;4511;-68
2022/08/17 04:23:58;;;;;;;;;;;;;;;25.02;61.47;100624.91;4999351;28;5881;-68
2022/08/17 04:26:24;;;;;;;;;;;;;;;25.02;61.45;100624.91;5001088;28;4293;-69
2022/08/17 04:29:11;;;;;;;;;;;;;;;25.03;61.48;100632.16;4999216;28;7665;-69
2022/08/17 04:31:38;;;;;;;;;;;;;;;25.03;61.52;100632.16;4998938;28;4287;-68
2022/08/17 04:34:04;;;;;;;;;;;;;;;25.03;61.50;100632.16;5000435;28;4144;-68
2022/08/17 04:36:30;;;;;;;;;;;;;;;25.03;61.49;100635.06;4999225;28;4258;-67
2022/08/17 04:38:57;;;;;;;;;;;;;;;25.03;61.39;100637.22;4998216;28;4152;-67
2022/08/17 04:44:10;;;;;;;;;;;;;;;25.03;61.58;100640.13;4999247;28;4187;-68
2022/08/17 04:46:36;;;;;;;;;;;;;;;25.02;61.35;100642.28;4998870;28;4077;-68
2022/08/17 04:49:07;;;;;;;;;;;;;;;25.02;61.42;100648.09;4999193;28;4282;-69
2022/08/17 04:51:38;;;;;;;;;;;;;;;25.02;61.71;100650.97;4999125;28;4179;-68
2022/08/17 04:54:17;;;;;;;;;;;;;;;25.02;61.33;100642.28;4999573;28;4127;-69
2022/08/17 04:56:43;;;;;;;;;;;;;;;25.02;61.47;100662.56;4999518;28;5026;-68
2022/08/17 04:59:16;;;;;;;;;;;;;;;25.01;61.54;100652.38;5000113;28;4056;-68
2022/08/17 05:01:44;;;;;;;;;;;;;;;25.02;61.48;100658.94;5000822;28;4143;-68
2022/08/17 05:04:16;;;;;;;;;;;;;;;25.01;61.45;100663.97;4998153;28;4244;-68
2022/08/17 05:06:59;;;;;;;;;;;;;;;25.01;61.47;100669.78;4998011;28;4258;-69
2022/08/17 05:09:26;;;;;;;;;;;;;;;25.02;61.67;100670.53;4996443;28;4210;-67
2022/08/17 05:11:52;;;;;;;;;;;;;;;25.00;61.50;100674.09;4999704;28;4176;-68
2022/08/17 05:14:21;;;;;;;;;;;;;;;25.01;61.70;100669.78;4997951;28;4231;-68
2022/08/17 05:16:58;;;;;;;;;;;;;;;25.00;61.72;100679.91;4997771;28;4245;-68
2022/08/17 05:19:26;;;;;;;;;;;;;;;25.01;61.74;100681.34;4996397;28;4051;-67
2022/08/17 05:21:52;;;;;;;;;;;;;;;25.01;61.74;100684.25;4999523;28;4060;-68
2022/08/17 05:24:19;;;;;;;;;;;;;;;25.01;61.90;100681.34;4997590;28;3981;-68
2022/08/17 05:27:05;;;;;;;;;;;;;;;25.01;61.77;100687.16;4999044;28;4109;-68
2022/08/17 05:29:32;;;;;;;;;;;;;;;25.01;61.90;100681.34;4995608;28;4226;-68
2022/08/17 05:32:10;;;;;;;;;;;;;;;25.02;61.88;100679.94;4997991;28;4246;-68
2022/08/17 05:34:58;;;;;;;;;;;;;;;25.01;61.89;100681.34;4998110;28;4217;-67
2022/08/17 05:37:25;;;;;;;;;;;;;;;25.02;61.60;100676.31;4998024;28;4319;-68
2022/08/17 05:39:52;;;;;;;;;;;;;;;25.02;62.10;100682.84;4995703;28;4033;-68
2022/08/17 05:42:18;;;;;;;;;;;;;;;25.02;61.88;100682.84;4998108;28;4274;-68
2022/08/17 05:44:45;;;;;;;;;;;;;;;25.02;62.11;100688.63;4997596;28;4249;-68
2022/08/17 05:47:11;;;;;;;;;;;;;;;25.01;62.00;100687.16;4997275;28;4386;-68
2022/08/17 05:49:38;;;;;;;;;;;;;;;25.00;62.14;100677.00;4998068;28;4217;-68
2022/08/17 05:52:04;;;;;;;;;;;;;;;25.03;62.23;100684.31;4997688;28;5412;-68
2022/08/17 05:54:38;;;;;;;;;;;;;;;25.03;62.28;100686.47;4999541;28;4389;-67
2022/08/17 05:57:14;;;;;;;;;;;;;;;25.03;62.55;100684.31;4999077;28;3977;-68
2022/08/17 05:59:56;;;;;;;;;;;;;;;25.03;62.25;100686.47;5002917;28;4080;-68
2022/08/17 06:02:25;;;;;;;;;;;;;;;25.03;62.32;100678.50;4998073;28;4238;-68
2022/08/17 06:04:54;;;;;;;;;;;;;;;25.03;62.19;100684.31;4994328;28;4182;-68
2022/08/17 06:07:27;;;;;;;;;;;;;;;25.03;62.27;100677.78;4998408;28;4275;-68
2022/08/17 06:09:57;;;;;;;;;;;;;;;25.03;62.27;100684.31;4996212;28;4202;-68
2022/08/17 06:12:26;;;;;;;;;;;;;;;25.04;62.32;100696.66;4997786;28;4171;-68
2022/08/17 06:15:07;;;;;;;;;;;;;;;25.03;62.31;100690.09;4997555;28;6289;-68
2022/08/17 06:17:33;;;;;;;;;;;;;;;25.03;62.36;100698.78;4998869;28;3957;-68
2022/08/17 06:20:01;;;;;;;;;;;;;;;25.03;62.19;100695.16;4998460;28;4093;-68
2022/08/17 06:22:30;;;;;;;;;;;;;;;25.03;62.29;100701.69;4997169;28;4215;-68
2022/08/17 06:25:00;;;;;;;;;;;;;;;25.03;62.37;100695.91;4999367;28;4304;-68
2022/08/17 06:27:34;;;;;;;;;;;;;;;25.04;62.36;100696.66;4998206;28;4184;-68
2022/08/17 06:30:06;;;;;;;;;;;;;;;25.04;62.65;100697.38;5000774;28;5263;-69
2022/08/17 06:32:34;;;;;;;;;;;;;;;25.03;62.48;100706.75;5001078;28;4445;-69
2022/08/17 06:35:01;;;;;;;;;;;;;;;25.03;62.47;100701.69;5002126;28;4286;-68
2022/08/17 06:37:43;;;;;;;;;;;;;;;25.03;62.59;100701.69;4999182;28;4246;-68
2022/08/17 06:40:14;;;;;;;;;;;;;;;25.04;62.57;100702.44;5002115;28;5343;-68
2022/08/17 06:42:49;;;;;;;;;;;;;;;25.03;62.47;100695.91;5000563;28;4289;-67
2022/08/17 06:45:37;;;;;;;;;;;;;;;25.04;62.58;100693.75;4998954;28;4360;-68
2022/08/17 06:48:11;;;;;;;;;;;;;;;25.04;62.52;100696.66;5000798;28;5309;-68
2022/08/17 06:50:39;;;;;;;;;;;;;;;25.04;62.51;100697.38;4999130;28;5396;-67
2022/08/17 06:53:12;;;;;;;;;;;;;;;25.03;62.62;100695.91;5000276;28;4240;-67
2022/08/17 06:55:47;;;;;;;;;;;;;;;25.03;62.50;100701.69;5001341;28;4478;-68
2022/08/17 06:58:13;;;;;;;;;;;;;;;25.04;62.53;100700.28;5005350;28;5270;-68
2022/08/17 07:00:42;;;;;;;;;;;;;;;25.04;62.52;100706.06;4999986;28;4221;-67
2022/08/17 07:03:36;;;;;;;;;;;;;;;25.04;62.62;100720.56;5006558;28;5194;-68
2022/08/17 07:06:18;;;;;;;;;;;;;;;25.03;62.68;100719.06;5007058;28;5659;-68
2022/08/17 07:08:50;;;;;;;;;;;;;;;25.04;62.61;100714.75;5001955;28;4202;-67
2022/08/17 07:11:37;;;;;;;;;;;;;;;25.05;62.49;100713.31;5001904;28;5512;-69
2022/08/17 07:14:13;;;;;;;;;;;;;;;25.04;62.57;100720.56;5005134;28;4244;-68
2022/08/17 07:16:45;;;;;;;;;;;;;;;25.04;62.45;100717.66;5004515;28;4443;-68
2022/08/17 07:19:12;;;;;;;;;;;;;;;25.05;62.46;100703.91;5000386;28;4265;-68
2022/08/17 07:21:43;;;;;;;;;;;;;;;25.04;62.49;100717.66;4999499;28;4223;-68
2022/08/17 07:24:28;;;;;;;;;;;;;;;25.04;62.56;100711.88;4997375;28;5342;-68
2022/08/17 07:27:02;;;;;;;;;;;;;;;25.04;62.36;100714.75;4999456;28;5016;-68
2022/08/17 07:29:33;;;;;;;;;;;;;;;25.05;62.39;100710.44;4999346;28;4296;-68
2022/08/17 07:31:59;;;;;;;;;;;;;;;25.04;62.54;100714.75;5003678;28;4316;-68
2022/08/17 07:34:26;;;;;;;;;;;;;;;25.05;62.48;100715.50;5000933;28;4292;-68
2022/08/17 07:37:02;;;;;;;;;;;;;;;25.04;62.38;100711.13;5000389;28;4213;-68
2022/08/17 07:39:29;;;;;;;;;;;;;;;25.04;62.56;100711.88;4999830;28;5197;-68
2022/08/17 07:42:02;;;;;;;;;;;;;;;25.05;62.23;100722.03;4998749;28;5751;-68
2022/08/17 07:44:28;;;;;;;;;;;;;;;25.05;62.38;100722.03;4998936;28;5302;-68
2022/08/17 07:49:41;;;;;;;;;;;;;;;25.05;62.24;100722.03;4999049;28;4161;-69
2022/08/17 07:52:08;;;;;;;;;;;;;;;25.05;62.26;100716.22;5000839;28;4212;-68
2022/08/17 07:54:54;;;;;;;;;;;;;;;25.05;62.24;100722.03;4999350;28;4317;-69
2022/08/17 07:57:24;;;;;;;;;;;;;;;25.05;62.19;100719.13;4999836;28;4040;-68
2022/08/17 08:00:01;;;;;;;;;;;;;;;25.05;62.37;100722.03;4999327;28;6797;-69
2022/08/17 08:02:39;;;;;;;;;;;;;;;25.06;62.11;100722.78;4999991;28;5249;-69
2022/08/17 08:05:19;;;;;;;;;;;;;;;25.06;62.23;100723.50;5001063;28;4099;-69
2022/08/17 08:08:17;;;;;;;;;;;;;;;25.04;62.15;100717.66;4999012;28;4143;-69
2022/08/17 08:10:44;;;;;;;;;;;;;;;25.05;62.13;100722.03;4998801;28;4127;-69
2022/08/17 08:13:21;;;;;;;;;;;;;;;25.06;62.25;100722.78;4998669;28;5207;-69
2022/08/17 08:15:54;;;;;;;;;;;;;;;25.05;62.23;100721.28;5000748;28;5282;-69
2022/08/17 08:18:28;;;;;;;;;;;;;;;25.05;62.12;100716.22;5000738;28;4142;-68
2022/08/17 08:21:23;;;;;;;;;;;;;;;25.05;62.01;100722.03;4996949;28;4161;-69
2022/08/17 08:24:11;;;;;;;;;;;;;;;25.06;62.09;100729.31;4999241;28;4195;-69
2022/08/17 08:26:45;;;;;;;;;;;;;;;25.06;62.27;100731.47;5000133;28;4125;-69
2022/08/17 08:29:14;;;;;;;;;;;;;;;25.06;62.08;100723.50;4998366;28;4107;-69
2022/08/17 08:31:55;;;;;;;;;;;;;;;25.06;62.04;100725.69;4998443;28;5347;-68
2022/08/17 08:34:28;;;;;;;;;;;;;;;25.06;61.89;100720.63;4998722;28;4076;-69
2022/08/17 08:37:33;;;;;;;;;;;;;;;25.06;62.09;100717.72;5002775;28;4150;-69
2022/08/17 08:40:10;;;;;;;;;;;;;;;25.06;61.81;100726.41;4999868;28;4100;-69
2022/08/17 08:42:55;;;;;;;;;;;;;;;25.07;62.14;100718.44;4999416;28;4108;-68
2022/08/17 08:45:39;;;;;;;;;;;;;;;25.07;62.14;100719.19;5000133;28;4336;-69
2022/08/17 08:48:09;;;;;;;;;;;;;;;25.07;61.79;100718.44;4997423;28;4074;-68
2022/08/17 08:51:04;;;;;;;;;;;;;;;25.07;61.83;100724.97;4999558;28;4123;-68
2022/08/17 08:53:37;;;;;;;;;;;;;;;25.07;61.88;100724.25;4998354;28;4222;-68
2022/08/17 08:56:05;;;;;;;;;;;;;;;25.06;61.76;100720.63;4999860;28;4091;-69
2022/08/17 08:58:49;;;;;;;;;;;;;;;25.07;61.72;100716.28;4997870;28;4969;-68
2022/08/17 09:01:17;;;;;;;;;;;;;;;25.07;61.81;100724.97;4997335;28;4441;-69
2022/08/17 09:03:50;;;;;;;;;;;;;;;25.07;61.54;100727.13;4997950;28;4183;-69
2022/08/17 09:06:45;;;;;;;;;;;;;;;25.08;61.74;100726.47;4999295;28;4531;-68
2022/08/17 09:09:26;;;;;;;;;;;;;;;25.08;61.66;100726.47;4995756;28;4249;-69
2022/08/17 09:11:56;;;;;;;;;;;;;;;25.07;61.56;100722.06;4999145;28;4175;-69
2022/08/17 09:14:33;;;;;;;;;;;;;;;25.07;61.58;100719.19;4997303;28;5375;-68
2022/08/17 09:17:20;;;;;;;;;;;;;;;25.08;61.58;100714.88;5004434;28;4167;-69
2022/08/17 09:19:54;;;;;;;;;;;;;;;25.07;61.53;100713.38;4999666;28;4149;-69
2022/08/17 09:22:22;;;;;;;;;;;;;;;25.08;61.46;100708.31;4998645;28;3940;-69
2022/08/17 09:24:53;;;;;;;;;;;;;;;25.08;61.49;100711.97;4998302;28;4132;-69
2022/08/17 09:27:20;;;;;;;;;;;;;;;25.09;61.48;100715.59;5004338;28;3975;-69
2022/08/17 09:29:52;;;;;;;;;;;;;;;25.09;61.43;100715.59;4996332;28;4178;-69
2022/08/17 09:32:21;;;;;;;;;;;;;;;25.07;61.67;100707.59;4998497;28;4158;-69
2022/08/17 09:34:52;;;;;;;;;;;;;;;25.08;61.39;100714.88;4997135;28;4207;-69
2022/08/17 09:37:21;;;;;;;;;;;;;;;25.08;61.39;100703.28;4998883;28;4201;-69
2022/08/17 09:39:57;;;;;;;;;;;;;;;25.08;61.52;100714.88;4999813;28;4514;-69
2022/08/17 09:42:25;;;;;;;;;;;;;;;25.08;61.12;100714.88;4996873;28;4559;-69
2022/08/17 09:44:58;;;;;;;;;;;;;;;25.08;61.24;100723.56;4996477;28;4387;-69
2022/08/17 09:47:29;;;;;;;;;;;;;;;25.08;60.96;100720.66;4997786;28;6533;-69
2022/08/17 09:50:10;;;;;;;;;;;;;;;25.08;60.87;100717.75;5001577;28;4248;-69
2022/08/17 09:52:36;;;;;;;;;;;;;;;25.08;60.82;100717.75;4998104;28;5574;-69
2022/08/17 09:55:03;;;;;;;;;;;;;;;25.09;60.63;100719.22;4997382;28;4129;-69
2022/08/17 09:57:48;;;;;;;;;;;;;;;25.10;60.58;100705.47;4997683;28;5467;-70
2022/08/17 10:00:17;;;;;;;;;;;;;;;25.09;60.43;100707.63;4997696;28;4245;-69
2022/08/17 10:03:00;;;;;;;;;;;;;;;25.09;60.26;100713.44;4998266;28;5280;-69
2022/08/17 10:05:32;;;;;;;;;;;;;;;25.09;60.25;100704.75;4997882;28;4052;-69
2022/08/17 10:08:08;;;;;;;;;;;;;;;25.09;60.32;100704.75;4998117;28;4080;-70
2022/08/17 10:10:54;;;;;;;;;;;;;;;25.11;59.95;100712.03;4996511;28;4362;-69
2022/08/17 10:13:25;;;;;;;;;;;;;;;25.11;59.94;100714.91;4995481;28;4087;-69
2022/08/17 10:15:58;;;;;;;;;;;;;;;25.11;60.10;100706.22;4996644;28;4182;-69
2022/08/17 10:18:29;;;;;;;;;;;;;;;25.10;59.83;100705.47;4998089;28;4191;-69
2022/08/17 10:26:11;;;;;;;;;;;;;;;25.11;59.73;100704.06;4997552;28;5496;-69
2022/08/17 10:26:31;;;;;;;;;;;;;;;25.10;59.76;100705.47;4996734;28;4194;-69
2022/08/17 10:29:30;;;;;;;;;;;;;;;25.11;59.93;100712.75;4998972;28;4743;-69
2022/08/17 10:32:21;;;;;;;;;;;;;;;25.11;59.92;100706.22;4998051;28;4545;-69
2022/08/17 10:34:52;;;;;;;;;;;;;;;25.11;60.01;100706.22;4997307;28;4466;-69
2022/08/17 10:37:18;;;;;;;;;;;;;;;25.11;60.00;100706.22;4998015;28;4272;-69
2022/08/17 10:39:56;;;;;;;;;;;;;;;25.12;60.08;100704.78;4997937;28;6297;-69
2022/08/17 10:42:30;;;;;;;;;;;;;;;25.11;59.96;100706.97;4998647;28;4359;-69
2022/08/17 10:45:00;;;;;;;;;;;;;;;25.13;60.09;100712.06;4998625;28;4576;-69
2022/08/17 10:47:45;;;;;;;;;;;;;;;25.12;60.18;100701.91;4998177;28;5189;-69
2022/08/17 10:50:42;;;;;;;;;;;;;;;25.11;60.10;100698.28;4997980;28;5256;-70
2022/08/17 10:53:08;;;;;;;;;;;;;;;25.13;60.01;100697.56;4999273;28;3914;-67
2022/08/17 10:55:34;;;;;;;;;;;;;;;25.12;60.17;100693.19;4998517;28;6251;-69
2022/08/17 10:58:19;;;;;;;;;;;;;;;25.12;60.11;100690.31;4998148;28;4622;-69
2022/08/17 11:00:53;;;;;;;;;;;;;;;25.12;60.17;100701.91;4997722;28;4178;-68
2022/08/17 11:03:20;;;;;;;;;;;;;;;25.11;60.28;100694.66;4997819;28;4238;-69
2022/08/17 11:05:46;;;;;;;;;;;;;;;25.11;60.42;100688.84;4997162;28;4249;-69
2022/08/17 11:08:19;;;;;;;;;;;;;;;25.12;60.47;100690.31;4997071;28;4084;-69
2022/08/17 11:10:45;;;;;;;;;;;;;;;25.12;60.11;100693.19;4997163;28;4198;-69
2022/08/17 11:13:33;;;;;;;;;;;;;;;25.11;60.00;100686.69;5000543;28;4055;-68
2022/08/17 11:16:18;;;;;;;;;;;;;;;25.11;60.09;100683.78;5000825;28;4156;-68
2022/08/17 11:18:52;;;;;;;;;;;;;;;25.12;60.31;100675.81;5000174;28;4176;-68
2022/08/17 11:21:23;;;;;;;;;;;;;;;25.13;60.44;100675.16;5001161;28;4326;-68
2022/08/17 11:23:56;;;;;;;;;;;;;;;25.14;60.57;100681.66;5000127;28;5386;-69
2022/08/17 11:26:24;;;;;;;;;;;;;;;25.14;60.59;100675.88;5001565;28;4571;-68
2022/08/17 11:28:55;;;;;;;;;;;;;;;25.14;60.74;100681.66;5001621;28;4215;-68
2022/08/17 11:31:25;;;;;;;;;;;;;;;25.13;60.58;100677.28;5001443;28;4221;-68
2022/08/17 11:34:04;;;;;;;;;;;;;;;25.13;60.68;100674.38;5001590;28;4178;-68
2022/08/17 11:36:30;;;;;;;;;;;;;;;25.12;60.88;100670.75;5003376;28;4499;-69
2022/08/17 11:39:00;;;;;;;;;;;;;;;25.14;60.76;100678.78;5001978;28;4208;-68
2022/08/17 11:41:47;;;;;;;;;;;;;;;25.15;61.01;100671.53;5013974;28;5345;-68
2022/08/17 11:44:40;;;;;;;;;;;;;;;25.15;60.90;100671.53;5000773;28;6255;-68
2022/08/17 11:53:04;;;;;;;;;;;;;;;25.17;61.23;100657.09;5001027;28;4079;-68
2022/08/17 11:55:31;;;;;;;;;;;;;;;25.16;61.26;100656.38;4999081;28;4410;-66
2022/08/17 11:58:05;;;;;;;;;;;;;;;25.16;61.34;100661.44;5001034;28;4254;-68
2022/08/17 12:00:43;;;;;;;;;;;;;;;25.15;61.47;100660.72;5000087;28;5305;-67
2022/08/17 12:03:21;;;;;;;;;;;;;;;25.17;61.61;100660.00;4999481;28;5515;-67
2022/08/17 12:05:47;;;;;;;;;;;;;;;25.18;62.25;100658.59;5000357;28;4120;-68
2022/08/17 12:08:16;;;;;;;;;;;;;;;25.21;62.23;100660.13;5004634;28;4229;-68
2022/08/17 12:10:58;;;;;;;;;;;;;;;25.21;62.90;100668.81;4999870;28;4146;-67
2022/08/17 12:13:24;;;;;;;;;;;;;;;25.19;63.48;100660.06;5001515;28;4229;-67
2022/08/17 12:16:06;;;;;;;;;;;;;;;25.21;63.27;100660.13;4999397;28;4222;-67
2022/08/17 12:18:34;;;;;;;;;;;;;;;25.20;63.41;100665.19;5004514;28;4914;-67
2022/08/17 12:21:14;;;;;;;;;;;;;;;25.21;63.17;100668.81;4999415;28;4156;-66
2022/08/17 12:23:56;;;;;;;;;;;;;;;25.24;63.22;100673.22;5000132;28;4170;-67
2022/08/17 12:26:29;;;;;;;;;;;;;;;25.23;63.22;100671.78;5000815;28;4068;-69
2022/08/17 12:28:57;;;;;;;;;;;;;;;25.22;63.44;100676.06;5000876;28;4226;-68
2022/08/17 12:31:33;;;;;;;;;;;;;;;25.24;63.41;100673.22;5005734;28;4247;-66
2022/08/17 12:34:00;;;;;;;;;;;;;;;25.24;63.30;100673.22;4999188;28;4199;-65
2022/08/17 12:36:27;;;;;;;;;;;;;;;25.25;63.47;100674.72;4999812;28;4153;-67
2022/08/17 12:38:58;;;;;;;;;;;;;;;25.26;63.58;100664.59;5000351;28;4256;-68
2022/08/17 12:41:40;;;;;;;;;;;;;;;25.29;63.71;100661.06;4999652;28;5280;-67
2022/08/17 12:44:15;;;;;;;;;;;;;;;25.34;64.00;100656.09;5000802;28;4214;-63
2022/08/17 12:46:47;;;;;;;;;;;;;;;25.35;63.95;100653.91;5000210;28;4202;-65
2022/08/17 12:49:21;;;;;;;;;;;;;;;25.33;64.22;100650.97;5000934;28;4421;-65
2022/08/17 12:51:48;;;;;;;;;;;;;;;25.31;64.20;100654.56;5000437;28;5335;-64
2022/08/17 12:54:33;;;;;;;;;;;;;;;25.31;63.97;100642.22;5000368;28;4335;-63
2022/08/17 12:57:02;;;;;;;;;;;;;;;25.28;64.15;100639.28;5000613;28;5443;-64
2022/08/17 12:59:31;;;;;;;;;;;;;;;25.29;64.31;100640.03;4997240;28;4193;-64
2022/08/17 13:01:58;;;;;;;;;;;;;;;25.30;64.42;100638.59;4999129;28;5429;-65
2022/08/17 13:04:24;;;;;;;;;;;;;;;25.31;64.63;100634.25;4999704;28;4164;-66
2022/08/17 13:06:55;;;;;;;;;;;;;;;25.32;64.49;100638.66;4998789;28;5232;-65
2022/08/17 13:09:29;;;;;;;;;;;;;;;25.33;64.69;100643.00;5000186;28;4421;-65
2022/08/17 13:12:05;;;;;;;;;;;;;;;25.33;64.52;100634.31;4998044;28;5719;-65
2022/08/17 13:14:32;;;;;;;;;;;;;;;25.35;64.44;100643.06;4998567;28;6398;-66
2022/08/17 13:16:59;;;;;;;;;;;;;;;25.36;64.50;100641.63;4998078;28;5709;-65
2022/08/17 13:19:29;;;;;;;;;;;;;;;25.38;64.46;100638.78;4997814;28;4236;-63
2022/08/17 13:22:08;;;;;;;;;;;;;;;25.39;64.52;100637.34;4997480;28;4321;-65
2022/08/17 13:24:35;;;;;;;;;;;;;;;25.39;64.34;100631.56;4996375;28;4583;-65
2022/08/17 13:27:06;;;;;;;;;;;;;;;25.37;64.63;100634.41;4999518;28;4220;-66
2022/08/17 13:29:43;;;;;;;;;;;;;;;25.38;64.53;100627.19;4998679;28;5503;-67
2022/08/17 13:32:12;;;;;;;;;;;;;;;25.38;64.61;100624.28;4999961;28;5419;-64
2022/08/17 13:34:42;;;;;;;;;;;;;;;25.40;64.73;100627.22;4998057;28;4161;-64
2022/08/17 13:37:31;;;;;;;;;;;;;;;25.40;64.82;100626.50;4998969;28;5274;-64
2022/08/17 13:40:06;;;;;;;;;;;;;;;25.39;64.77;100631.56;4999616;28;4082;-65